Time;durP1;ratioP1;P1;durP2;ratioP2;P2;SDS_P1;SDS_P2;PMS_P1;PMS_P2;Temp;Humidity;BMP_temperature;BMP_pressure;BME280_temperature;BME280_humidity;BME280_pressure;Samples;Min_cycle;Max_cycle;Signal;HPM_P1;HPM_P2
2022/11/04 00:01:40;;;;;;;4.18;2.03;;;14.10;99.90;;;;;;5010858;28;20050;-87
2022/11/04 00:04:07;;;;;;;4.20;1.93;;;14.20;99.90;;;;;;5008350;28;20048;-88
2022/11/04 00:06:36;;;;;;;3.67;1.60;;;14.10;99.90;;;;;;5009396;28;20300;-88
2022/11/04 00:09:04;;;;;;;3.75;1.60;;;14.10;99.90;;;;;;5010377;28;20073;-88
2022/11/04 00:14:16;;;;;;;3.45;1.65;;;14.00;99.90;;;;;;4973938;28;20045;-88
2022/11/04 00:19:27;;;;;;;4.70;1.52;;;14.00;99.90;;;;;;5019745;28;20038;-88
2022/11/04 00:30:10;;;;;;;3.92;1.65;;;13.90;99.90;;;;;;5009164;28;20402;-87
2022/11/04 00:35:24;;;;;;;3.70;1.20;;;13.90;99.90;;;;;;5003089;28;20064;-87
2022/11/04 00:37:52;;;;;;;3.30;1.67;;;13.90;99.90;;;;;;5000130;28;20132;-87
2022/11/04 00:40:19;;;;;;;3.63;1.33;;;13.80;99.90;;;;;;5024326;28;20045;-87
2022/11/04 00:42:46;;;;;;;3.25;1.30;;;13.80;99.90;;;;;;5010038;28;20099;-88
2022/11/04 00:45:13;;;;;;;2.92;1.50;;;13.80;99.90;;;;;;5004414;28;20120;-87
2022/11/04 00:47:40;;;;;;;4.57;1.42;;;14.00;99.90;;;;;;5008933;28;20053;-87
2022/11/04 00:50:08;;;;;;;3.33;1.55;;;13.80;99.90;;;;;;5009678;28;20099;-87
2022/11/04 00:52:35;;;;;;;6.50;1.88;;;13.80;99.90;;;;;;5010044;28;20042;-88
2022/11/04 00:55:05;;;;;;;3.10;1.30;;;13.80;99.90;;;;;;4976412;28;20054;-88
2022/11/04 00:57:32;;;;;;;2.40;1.23;;;13.80;99.90;;;;;;5014896;28;20041;-87
2022/11/04 00:59:59;;;;;;;4.05;1.55;;;13.80;99.90;;;;;;5005129;28;20045;-88
2022/11/04 01:02:26;;;;;;;2.90;1.40;;;13.80;99.90;;;;;;5009175;28;20050;-87
2022/11/04 01:04:54;;;;;;;4.38;1.48;;;13.80;99.90;;;;;;4988564;28;20046;-88
2022/11/04 01:07:21;;;;;;;5.82;1.70;;;13.90;99.90;;;;;;5017739;28;20044;-88
2022/11/04 01:09:49;;;;;;;5.30;1.70;;;13.80;99.90;;;;;;4994720;28;20046;-88
2022/11/04 01:12:17;;;;;;;3.30;1.70;;;13.80;99.90;;;;;;5009121;28;20060;-88
2022/11/04 01:14:44;;;;;;;4.07;2.22;;;13.80;99.90;;;;;;5003156;28;20125;-88
2022/11/04 01:17:15;;;;;;;5.35;2.13;;;13.80;99.90;;;;;;5009466;28;20046;-87
2022/11/04 01:19:42;;;;;;;5.43;2.28;;;13.80;99.90;;;;;;5007675;28;20048;-88
2022/11/04 01:22:09;;;;;;;6.03;2.42;;;13.70;99.90;;;;;;4999572;28;20772;-88
2022/11/04 01:24:36;;;;;;;3.78;2.00;;;13.80;99.90;;;;;;4991062;28;20521;-88
2022/11/04 01:27:06;;;;;;;4.57;2.45;;;13.80;99.90;;;;;;4973893;28;20046;-88
2022/11/04 01:29:34;;;;;;;3.53;2.00;;;13.80;99.90;;;;;;4994327;28;20117;-87
2022/11/04 01:32:04;;;;;;;5.25;2.50;;;13.80;99.90;;;;;;4990865;28;20457;-88
2022/11/04 01:34:31;;;;;;;4.25;2.30;;;13.80;99.90;;;;;;5006488;28;20064;-89
2022/11/04 01:36:58;;;;;;;4.65;2.42;;;13.80;99.90;;;;;;5012862;28;20130;-88
2022/11/04 01:39:25;;;;;;;4.05;2.35;;;13.80;99.90;;;;;;5009073;28;20054;-88
2022/11/04 01:41:52;;;;;;;4.43;1.92;;;13.80;99.90;;;;;;5009197;28;20046;-87
2022/11/04 01:44:49;;;;;;;6.97;2.53;;;13.80;99.90;;;;;;5004239;28;20137;-88
2022/11/04 01:47:18;;;;;;;4.75;2.30;;;13.80;99.90;;;;;;5012112;28;20571;-88
2022/11/04 01:49:48;;;;;;;4.30;2.20;;;13.70;99.90;;;;;;5012524;28;20046;-90
2022/11/04 01:52:22;;;;;;;6.57;2.58;;;13.70;99.90;;;;;;4990437;28;20054;-85
2022/11/04 01:54:50;;;;;;;4.68;2.35;;;13.80;99.90;;;;;;5003050;28;20044;-85
2022/11/04 01:57:20;;;;;;;6.00;2.50;;;13.70;99.90;;;;;;5008707;28;20042;-85
2022/11/04 01:59:48;;;;;;;7.47;2.70;;;13.70;99.90;;;;;;4994186;28;20050;-85
2022/11/04 02:02:18;;;;;;;5.30;2.88;;;13.80;99.90;;;;;;4991813;28;20052;-85
2022/11/04 02:04:45;;;;;;;7.97;2.90;;;13.80;99.90;;;;;;4993641;28;20042;-86
2022/11/04 02:07:12;;;;;;;6.47;2.88;;;13.80;99.90;;;;;;4996109;28;20053;-85
2022/11/04 02:09:40;;;;;;;7.47;2.75;;;13.80;99.90;;;;;;4992968;28;20417;-86
2022/11/04 02:14:54;;;;;;;6.18;2.70;;;13.80;99.90;;;;;;4989159;28;20050;-85
2022/11/04 02:17:31;;;;;;;6.40;2.78;;;13.80;99.90;;;;;;5001668;28;20042;-85
2022/11/04 02:20:15;;;;;;;6.15;3.15;;;13.80;99.90;;;;;;5008004;28;20053;-86
2022/11/04 02:23:26;;;;;;;5.05;2.85;;;13.80;99.90;;;;;;4991041;28;20140;-86
2022/11/04 02:26:39;;;;;;;6.38;2.80;;;13.70;99.90;;;;;;5008523;28;20108;-85
2022/11/04 02:29:25;;;;;;;7.78;2.90;;;13.70;99.90;;;;;;4969272;28;20364;-85
2022/11/04 02:31:57;;;;;;;6.28;3.15;;;13.70;99.90;;;;;;5012430;28;20045;-86
2022/11/04 02:34:32;;;;;;;7.30;2.85;;;13.70;99.90;;;;;;5010253;28;20046;-86
2022/11/04 02:37:07;;;;;;;6.95;2.67;;;13.60;99.90;;;;;;5002569;28;20478;-86
2022/11/04 02:39:38;;;;;;;9.65;2.80;;;13.60;99.90;;;;;;5011979;28;20037;-85
2022/11/04 02:42:12;;;;;;;7.40;2.95;;;13.60;99.90;;;;;;5008543;28;20779;-86
2022/11/04 02:44:44;;;;;;;4.40;2.30;;;13.50;99.90;;;;;;5027928;22;20046;-82
2022/11/04 02:47:14;;;;;;;4.38;2.13;;;13.50;99.90;;;;;;5031843;28;20050;-82
2022/11/04 02:49:45;;;;;;;7.53;2.50;;;13.50;99.90;;;;;;5029677;28;20045;-82
2022/11/04 02:52:12;;;;;;;;;;;13.50;99.90;;;;;;5021871;28;20492;-82
2022/11/04 02:54:44;;;;;;;6.70;2.40;;;13.40;99.90;;;;;;5026954;28;19921;-82
2022/11/04 02:57:12;;;;;;;;;;;13.40;99.90;;;;;;5011796;28;20585;-82
2022/11/04 02:59:43;;;;;;;6.68;2.15;;;13.40;99.90;;;;;;5010335;28;19927;-82
2022/11/04 03:02:11;;;;;;;;;;;13.40;99.90;;;;;;5010602;28;20046;-82
2022/11/04 03:04:41;;;;;;;7.28;2.10;;;13.40;99.90;;;;;;5009385;28;19925;-82
2022/11/04 03:07:11;;;;;;;9.00;2.03;;;13.30;99.90;;;;;;4993159;28;20074;-82
2022/11/04 03:09:43;;;;;;;8.88;1.75;;;13.30;99.90;;;;;;5011435;28;20529;-82
2022/11/04 03:12:13;;;;;;;6.38;2.10;;;13.20;99.90;;;;;;5011654;28;20045;-82
2022/11/04 03:14:44;;;;;;;9.50;2.47;;;13.20;99.90;;;;;;4991624;28;20142;-82
2022/11/04 03:17:17;;;;;;;8.30;2.00;;;13.20;99.90;;;;;;5011394;28;20121;-82
2022/11/04 03:19:50;;;;;;;9.07;1.95;;;13.20;99.90;;;;;;5011238;28;20046;-82
2022/11/04 03:22:18;;;;;;;9.38;2.33;;;13.20;99.90;;;;;;5011633;28;20056;-82
2022/11/04 03:24:47;;;;;;;4.85;1.80;;;13.20;99.90;;;;;;5009557;28;20088;-82
2022/11/04 03:27:20;;;;;;;8.73;2.13;;;13.20;99.90;;;;;;5011038;28;20048;-82
2022/11/04 03:29:51;;;;;;;6.18;1.73;;;13.20;99.90;;;;;;5011451;28;20410;-81
2022/11/04 03:32:25;;;;;;;9.70;2.25;;;13.10;99.90;;;;;;5009312;28;20054;-81
2022/11/04 03:34:52;;;;;;;6.50;1.70;;;13.10;99.90;;;;;;5009286;28;20054;-81
2022/11/04 03:37:19;;;;;;;5.03;1.88;;;13.10;99.90;;;;;;5010400;28;20045;-81
2022/11/04 03:39:48;;;;;;;4.75;2.03;;;13.10;99.90;;;;;;5010522;28;20255;-82
2022/11/04 03:42:22;;;;;;;7.90;1.65;;;13.10;99.90;;;;;;5010985;28;20517;-81
2022/11/04 03:44:51;;;;;;;10.60;2.30;;;13.00;99.90;;;;;;5008557;28;20056;-81
2022/11/04 03:47:20;;;;;;;6.07;1.90;;;13.00;99.90;;;;;;5009001;28;20509;-81
2022/11/04 03:49:50;;;;;;;7.85;1.60;;;13.00;99.90;;;;;;5010511;28;20050;-81
2022/11/04 03:52:22;;;;;;;8.15;2.03;;;13.00;99.90;;;;;;5011336;28;20042;-82
2022/11/04 03:54:49;;;;;;;6.47;1.70;;;13.00;99.90;;;;;;5010194;28;20056;-83
2022/11/04 03:57:38;;;;;;;7.63;2.03;;;13.00;99.90;;;;;;5012592;28;20034;-83
2022/11/04 04:00:10;;;;;;;5.63;1.65;;;13.00;99.90;;;;;;5014973;28;20546;-82
2022/11/04 04:02:59;;;;;;;12.70;2.53;;;13.00;99.90;;;;;;5014011;28;20436;-83
2022/11/04 04:08:15;;;;;;;8.80;2.25;;;12.90;99.90;;;;;;5009654;28;20525;-82
2022/11/04 04:10:49;;;;;;;7.80;2.20;;;12.90;99.90;;;;;;5012490;28;20050;-82
2022/11/04 04:13:23;;;;;;;10.32;2.00;;;12.90;99.90;;;;;;5010974;28;20050;-82
2022/11/04 04:15:56;;;;;;;8.48;2.22;;;12.90;99.90;;;;;;5006905;28;20410;-82
2022/11/04 04:18:29;;;;;;;10.05;2.25;;;12.90;99.90;;;;;;5010941;28;20046;-82
2022/11/04 04:20:56;;;;;;;5.40;1.80;;;12.90;99.90;;;;;;5009311;28;20125;-82
2022/11/04 04:29:00;;;;;;;8.70;2.58;;;12.80;99.90;;;;;;5003247;28;20038;-82
2022/11/04 04:34:14;;;;;;;7.78;2.00;;;12.80;99.90;;;;;;4991481;28;20525;-82
2022/11/04 04:36:45;;;;;;;6.57;2.00;;;12.80;99.90;;;;;;5009042;28;20514;-82
2022/11/04 04:45:02;;;;;;;6.28;2.45;;;12.80;99.90;;;;;;5008343;28;20551;-82
2022/11/04 04:47:48;;;;;;;5.78;1.88;;;12.80;99.90;;;;;;5006784;28;20050;-82
2022/11/04 04:50:20;;;;;;;9.23;2.28;;;12.80;99.90;;;;;;5009637;28;20128;-82
2022/11/04 04:52:52;;;;;;;12.95;2.72;;;12.80;99.90;;;;;;5009054;28;20048;-82
2022/11/04 04:55:23;;;;;;;9.65;2.00;;;12.70;99.90;;;;;;5007741;28;20076;-82
2022/11/04 04:57:50;;;;;;;7.53;2.15;;;12.70;99.90;;;;;;5009837;28;20038;-82
2022/11/04 05:00:19;;;;;;;8.80;2.92;;;12.70;99.90;;;;;;5009429;28;20586;-82
2022/11/04 05:02:48;;;;;;;10.50;2.60;;;12.70;99.90;;;;;;5010457;28;20124;-82
2022/11/04 05:05:16;;;;;;;8.25;2.53;;;12.70;99.90;;;;;;5009770;28;20052;-82
2022/11/04 05:07:43;;;;;;;11.05;2.20;;;12.70;99.90;;;;;;5010153;28;20042;-90
2022/11/04 05:10:12;;;;;;;12.27;2.42;;;12.70;99.90;;;;;;5011792;28;20046;-89
2022/11/04 05:15:30;;;;;;;10.05;2.28;;;12.70;99.90;;;;;;5007708;28;20450;-89
2022/11/04 05:17:59;;;;;;;12.07;2.28;;;12.70;99.90;;;;;;4990507;28;20081;-91
2022/11/04 05:20:27;;;;;;;12.70;2.30;;;12.60;99.90;;;;;;5010047;28;20042;-89
2022/11/04 05:22:55;;;;;;;9.15;2.30;;;12.60;99.90;;;;;;5011215;28;20131;-86
2022/11/04 05:25:22;;;;;;;10.32;2.17;;;12.60;99.90;;;;;;5007685;28;20117;-88
2022/11/04 05:27:48;;;;;;;9.23;2.15;;;12.60;99.90;;;;;;5007294;28;20042;-87
2022/11/04 05:30:16;;;;;;;13.43;2.35;;;12.60;99.90;;;;;;5009360;28;20045;-89
2022/11/04 05:32:43;;;;;;;12.35;2.25;;;12.60;99.90;;;;;;5008118;28;20104;-89
2022/11/04 05:35:11;;;;;;;7.65;1.90;;;12.50;99.90;;;;;;4989922;28;20057;-90
2022/11/04 05:37:39;;;;;;;7.97;1.88;;;12.50;99.90;;;;;;5008935;28;20045;-89
2022/11/04 05:40:07;;;;;;;12.38;2.63;;;12.60;99.90;;;;;;5009328;28;20119;-89
2022/11/04 05:42:35;;;;;;;10.73;2.30;;;12.50;99.90;;;;;;4990003;28;20054;-86
2022/11/04 05:45:03;;;;;;;9.73;2.17;;;12.50;99.90;;;;;;5003937;28;20057;-87
2022/11/04 05:47:30;;;;;;;7.97;2.20;;;12.50;99.90;;;;;;5006879;28;20046;-89
2022/11/04 05:49:57;;;;;;;9.38;2.28;;;12.50;99.90;;;;;;4991314;28;20054;-89
2022/11/04 05:52:25;;;;;;;10.85;2.15;;;12.50;99.90;;;;;;5007770;28;20046;-88
2022/11/04 05:54:53;;;;;;;10.05;2.35;;;12.50;99.90;;;;;;5005985;28;20486;-88
2022/11/04 05:57:20;;;;;;;9.45;2.10;;;12.50;99.90;;;;;;5004619;28;20049;-81
2022/11/04 05:59:47;;;;;;;6.65;1.90;;;12.50;99.90;;;;;;5010124;28;20046;-82
2022/11/04 06:02:13;;;;;;;9.57;2.20;;;12.60;99.90;;;;;;5011526;28;20046;-86
2022/11/04 06:04:40;;;;;;;12.77;2.13;;;12.50;99.90;;;;;;5010809;28;20049;-86
2022/11/04 06:07:08;;;;;;;10.48;2.05;;;12.50;99.90;;;;;;4992400;28;20538;-86
2022/11/04 06:09:39;;;;;;;7.10;1.90;;;12.40;99.90;;;;;;5007887;28;20038;-81
2022/11/04 06:12:10;;;;;;;8.55;1.90;;;12.40;99.90;;;;;;5010784;28;20076;-83
2022/11/04 06:14:38;;;;;;;11.95;1.92;;;12.40;99.90;;;;;;5009866;28;20524;-83
2022/11/04 06:17:04;;;;;;;8.15;1.67;;;12.30;99.90;;;;;;5009587;28;20046;-83
2022/11/04 06:19:31;;;;;;;7.10;1.80;;;12.30;99.90;;;;;;5010887;28;20034;-87
2022/11/04 06:21:59;;;;;;;7.63;1.85;;;12.30;99.90;;;;;;5010749;28;20103;-82
2022/11/04 06:24:26;;;;;;;8.90;2.08;;;12.40;99.90;;;;;;5009597;28;20522;-82
2022/11/04 06:26:54;;;;;;;8.35;2.38;;;12.40;99.90;;;;;;5012272;28;20038;-82
2022/11/04 06:29:21;;;;;;;6.20;2.10;;;12.40;99.90;;;;;;5012272;28;20433;-82
2022/11/04 06:31:48;;;;;;;8.10;2.10;;;12.40;99.90;;;;;;5011052;28;20046;-87
2022/11/04 06:34:15;;;;;;;10.15;2.00;;;12.40;99.90;;;;;;5011103;28;20121;-83
2022/11/04 06:36:42;;;;;;;8.00;2.08;;;12.40;99.90;;;;;;5011843;28;20103;-84
2022/11/04 06:39:12;;;;;;;11.60;2.80;;;12.40;99.90;;;;;;5010195;28;20592;-84
2022/11/04 06:41:39;;;;;;;11.25;2.55;;;12.40;99.90;;;;;;5011072;28;20046;-83
2022/11/04 06:44:08;;;;;;;9.68;2.25;;;12.40;99.90;;;;;;5006776;28;20107;-83
2022/11/04 06:46:37;;;;;;;11.88;2.40;;;12.40;99.90;;;;;;5011892;28;20038;-83
2022/11/04 06:49:04;;;;;;;8.65;2.10;;;12.40;99.90;;;;;;5006735;28;20258;-84
2022/11/04 06:51:32;;;;;;;15.65;2.95;;;12.40;99.90;;;;;;5010298;28;20052;-84
2022/11/04 06:53:59;;;;;;;10.60;2.13;;;12.40;99.90;;;;;;5010106;28;20034;-83
2022/11/04 06:56:26;;;;;;;10.57;2.40;;;12.40;99.90;;;;;;4991712;28;20499;-84
2022/11/04 06:58:54;;;;;;;8.02;2.47;;;12.40;99.90;;;;;;5009960;28;20041;-84
2022/11/04 07:01:25;;;;;;;8.95;2.17;;;12.40;99.90;;;;;;5011183;28;20101;-83
2022/11/04 07:03:54;;;;;;;8.38;2.35;;;12.40;99.90;;;;;;5006205;28;20049;-83
2022/11/04 07:06:21;;;;;;;12.85;2.72;;;12.40;99.90;;;;;;5006914;28;20143;-84
2022/11/04 07:08:49;;;;;;;9.15;2.80;;;12.50;99.90;;;;;;5005543;28;20045;-84
2022/11/04 07:11:17;;;;;;;7.47;2.60;;;12.50;99.90;;;;;;5008764;28;20060;-83
2022/11/04 07:13:44;;;;;;;15.02;3.20;;;12.50;99.90;;;;;;5006096;28;20088;-84
2022/11/04 07:16:11;;;;;;;13.98;2.80;;;12.50;99.90;;;;;;5009386;28;20038;-83
2022/11/04 07:18:39;;;;;;;13.05;3.22;;;12.50;99.90;;;;;;5010970;28;20117;-83
2022/11/04 07:21:07;;;;;;;9.85;2.50;;;12.60;99.90;;;;;;4993705;28;20053;-83
2022/11/04 07:23:34;;;;;;;9.57;2.38;;;12.60;99.90;;;;;;4991935;28;20042;-84
2022/11/04 07:26:01;;;;;;;12.45;3.38;;;12.60;99.90;;;;;;5008646;28;20181;-84
2022/11/04 07:28:28;;;;;;;11.45;3.20;;;12.60;99.90;;;;;;5009354;28;20034;-84
2022/11/04 07:30:58;;;;;;;12.18;3.13;;;12.70;99.90;;;;;;5007788;28;20119;-84
2022/11/04 07:33:26;;;;;;;14.88;4.30;;;12.70;99.90;;;;;;5009275;28;20045;-84
2022/11/04 07:35:57;;;;;;;12.50;5.00;;;12.70;99.90;;;;;;5009328;28;20042;-84
2022/11/04 07:38:24;;;;;;;11.73;4.50;;;12.80;99.90;;;;;;4990846;28;20093;-84
2022/11/04 07:40:51;;;;;;;10.35;4.10;;;12.80;99.90;;;;;;5013852;28;20059;-84
2022/11/04 07:43:18;;;;;;;9.30;2.97;;;12.80;99.90;;;;;;5010054;28;20517;-84
2022/11/04 07:45:45;;;;;;;9.18;2.97;;;12.80;99.90;;;;;;5007674;28;20038;-85
2022/11/04 07:48:14;;;;;;;9.30;2.67;;;12.80;99.90;;;;;;4988600;28;20052;-88
2022/11/04 07:50:41;;;;;;;12.65;2.67;;;12.80;99.90;;;;;;5010292;28;20129;-85
2022/11/04 07:53:10;;;;;;;10.75;2.70;;;12.90;99.90;;;;;;5010363;28;20092;-84
2022/11/04 07:55:37;;;;;;;10.30;2.70;;;12.90;99.90;;;;;;5010073;28;20045;-86
2022/11/04 07:58:04;;;;;;;9.57;2.53;;;12.90;99.90;;;;;;5008556;28;20403;-87
2022/11/04 08:00:31;;;;;;;11.52;3.53;;;12.90;99.90;;;;;;5008349;28;20129;-86
2022/11/04 08:02:58;;;;;;;13.07;2.63;;;12.90;99.90;;;;;;5010319;28;20045;-86
2022/11/04 08:05:26;;;;;;;9.25;2.63;;;12.90;99.90;;;;;;5010183;28;20046;-86
2022/11/04 08:07:53;;;;;;;17.95;2.55;;;13.00;99.90;;;;;;5010247;28;20042;-84
2022/11/04 08:10:22;;;;;;;9.45;2.42;;;13.00;99.90;;;;;;5008956;28;20042;-90
2022/11/04 08:12:49;;;;;;;11.43;2.97;;;13.00;99.90;;;;;;5011408;28;20040;-89
2022/11/04 08:15:16;;;;;;;11.05;3.63;;;13.00;99.90;;;;;;4992387;28;20130;-88
2022/11/04 08:17:43;;;;;;;10.85;2.65;;;13.00;99.90;;;;;;5006481;28;20399;-90
2022/11/04 08:20:11;;;;;;;12.40;2.85;;;13.00;99.90;;;;;;5014882;28;20117;-90
2022/11/04 08:22:38;;;;;;;12.70;2.38;;;13.10;99.90;;;;;;5015675;28;20056;-90
2022/11/04 08:25:06;;;;;;;15.20;2.97;;;13.10;99.90;;;;;;4996740;28;20188;-90
2022/11/04 08:27:34;;;;;;;17.85;2.88;;;13.10;99.90;;;;;;5010887;28;20092;-89
2022/11/04 08:30:02;;;;;;;8.07;2.28;;;13.10;99.90;;;;;;5003056;28;20038;-90
2022/11/04 08:32:29;;;;;;;8.48;2.45;;;13.10;99.90;;;;;;4992136;28;20587;-90
2022/11/04 08:34:56;;;;;;;7.95;2.15;;;13.20;99.90;;;;;;5006367;28;20091;-89
2022/11/04 08:37:23;;;;;;;12.77;3.05;;;13.10;99.90;;;;;;5009325;28;20048;-90
2022/11/04 08:39:50;;;;;;;11.35;2.45;;;13.20;99.90;;;;;;5010252;28;20057;-88
2022/11/04 08:42:18;;;;;;;8.20;2.13;;;13.20;99.90;;;;;;5011672;28;20075;-87
2022/11/04 08:44:50;;;;;;;13.20;2.40;;;13.20;99.90;;;;;;5026968;22;20133;-88
2022/11/04 08:47:18;;;;;;;9.80;2.20;;;13.20;99.90;;;;;;5031145;28;20147;-91
2022/11/04 08:49:47;;;;;;;10.43;2.30;;;13.30;99.90;;;;;;5053229;28;20040;-87
2022/11/04 08:52:19;;;;;;;;;;;13.30;99.90;;;;;;5049318;28;20135;-91
2022/11/04 08:54:51;;;;;;;11.57;2.72;;;13.30;99.90;;;;;;5031076;28;19927;-94
2022/11/04 08:57:21;;;;;;;12.98;2.25;;;13.30;99.90;;;;;;5035605;28;20128;-94
2022/11/04 09:00:08;;;;;;;11.13;2.50;;;13.30;99.90;;;;;;5050938;28;20037;-93
2022/11/04 09:02:35;;;;;;;14.65;2.83;;;13.30;99.90;;;;;;5031431;28;20052;-91
2022/11/04 09:05:02;;;;;;;13.43;3.38;;;13.30;99.90;;;;;;5033219;28;20079;-90
2022/11/04 09:07:29;;;;;;;8.40;2.55;;;13.30;99.90;;;;;;5052473;28;20059;-93
2022/11/04 09:09:56;;;;;;;10.57;2.78;;;13.30;99.90;;;;;;5032535;28;20068;-94
2022/11/04 09:12:23;;;;;;;11.70;2.78;;;13.30;99.90;;;;;;5030680;28;20051;-94
2022/11/04 09:14:52;;;;;;;8.07;2.95;;;13.40;99.90;;;;;;5051661;28;20076;-93
2022/11/04 09:17:19;;;;;;;9.32;2.45;;;13.40;99.90;;;;;;5046476;28;20429;-95
2022/11/04 09:19:46;;;;;;;12.38;2.47;;;13.40;99.90;;;;;;5052092;28;20044;-95
2022/11/04 09:22:13;;;;;;;11.00;2.80;;;13.40;99.90;;;;;;5051742;28;20144;-94
2022/11/04 09:24:40;;;;;;;6.80;2.47;;;13.50;99.90;;;;;;5050917;28;20053;-94
2022/11/04 09:27:07;;;;;;;8.55;2.55;;;13.50;99.90;;;;;;5045786;28;20483;-93
2022/11/04 09:29:35;;;;;;;11.00;2.33;;;13.60;99.90;;;;;;5058620;28;20044;-94
2022/11/04 09:32:06;;;;;;;8.75;2.80;;;13.50;99.90;;;;;;5038837;28;20040;-94
2022/11/04 09:34:33;;;;;;;10.85;2.28;;;13.50;99.90;;;;;;5022300;28;20060;-93
2022/11/04 09:37:00;;;;;;;11.07;2.20;;;13.50;99.90;;;;;;5052489;28;20599;-95
2022/11/04 09:39:27;;;;;;;10.70;2.50;;;13.60;99.90;;;;;;5058189;28;20041;-93
2022/11/04 09:42:25;;;;;;;11.45;2.42;;;13.60;99.90;;;;;;5051381;28;20103;-87
2022/11/04 09:44:57;;;;;;;8.75;2.30;;;13.60;99.90;;;;;;5048378;28;20079;-93
2022/11/04 09:47:28;;;;;;;10.32;2.97;;;13.60;99.90;;;;;;5027714;28;20116;-93
2022/11/04 09:49:59;;;;;;;13.07;2.25;;;13.60;99.90;;;;;;5031172;28;20045;-93
2022/11/04 09:52:28;;;;;;;8.88;2.38;;;13.60;99.90;;;;;;5029967;28;20053;-91
2022/11/04 09:55:03;;;;;;;8.02;2.03;;;13.60;99.90;;;;;;5029885;28;20045;-93
2022/11/04 09:57:31;;;;;;;8.20;2.00;;;13.60;99.90;;;;;;5033195;28;20065;-91
2022/11/04 10:00:00;;;;;;;7.80;1.90;;;13.70;99.90;;;;;;5030098;28;20132;-87
2022/11/04 10:02:46;;;;;;;11.38;2.40;;;13.70;99.90;;;;;;5046060;28;20045;-91
2022/11/04 10:05:28;;;;;;;8.40;2.22;;;13.80;99.90;;;;;;5055188;28;20049;-93
2022/11/04 10:08:09;;;;;;;6.90;1.90;;;13.80;99.90;;;;;;5068836;28;20143;-93
2022/11/04 10:10:40;;;;;;;6.37;1.73;;;13.80;99.90;;;;;;5048618;28;20038;-94
2022/11/04 10:13:20;;;;;;;9.52;2.28;;;13.80;99.90;;;;;;5047157;28;20048;-94
2022/11/04 10:16:15;;;;;;;6.63;1.73;;;13.90;99.90;;;;;;5053936;28;20067;-92
2022/11/04 10:18:58;;;;;;;7.13;2.17;;;13.90;99.90;;;;;;5050657;28;20054;-93
2022/11/04 10:21:33;;;;;;;9.57;1.88;;;13.90;99.90;;;;;;5033776;28;20517;-93
2022/11/04 10:24:12;;;;;;;13.27;2.20;;;14.00;99.90;;;;;;5014955;28;20073;-94
2022/11/04 10:26:44;;;;;;;8.93;1.60;;;14.00;99.90;;;;;;5033661;28;20044;-94
2022/11/04 10:29:16;;;;;;;6.13;1.75;;;14.00;99.90;;;;;;5036096;28;20048;-92
2022/11/04 10:31:45;;;;;;;10.25;1.67;;;14.10;99.90;;;;;;5034268;28;20057;-94
2022/11/04 10:34:21;;;;;;;9.75;2.03;;;14.10;99.90;;;;;;5048717;28;20049;-94
2022/11/04 10:36:49;;;;;;;8.80;1.73;;;14.10;99.90;;;;;;5064526;28;20049;-94
2022/11/04 10:39:21;;;;;;;7.10;2.30;;;14.20;99.90;;;;;;5039677;28;20604;-95
2022/11/04 10:41:48;;;;;;;9.75;1.85;;;14.20;99.90;;;;;;5051387;28;20041;-95
2022/11/04 10:44:20;;;;;;;9.43;1.92;;;14.20;99.90;;;;;;5037562;28;20045;-95
2022/11/04 10:46:54;;;;;;;7.28;1.95;;;14.20;99.90;;;;;;5034298;28;20072;-95
2022/11/04 10:49:55;;;;;;;9.07;2.08;;;14.20;99.90;;;;;;5043375;28;20124;-95
2022/11/04 10:52:22;;;;;;;8.93;2.10;;;14.20;99.90;;;;;;5010990;28;20426;-93
2022/11/04 10:54:49;;;;;;;6.22;1.60;;;14.20;99.90;;;;;;5037063;28;20041;-94
2022/11/04 10:57:19;;;;;;;10.52;2.17;;;14.20;99.90;;;;;;5053471;28;20143;-93
2022/11/04 10:59:51;;;;;;;8.70;2.35;;;14.20;99.90;;;;;;5037569;28;20049;-95
2022/11/04 11:02:18;;;;;;;;;;;14.20;99.90;;;;;;5041422;28;20052;-94
2022/11/04 11:04:46;;;;;;;12.70;2.85;;;14.20;99.90;;;;;;5017612;28;19927;-93
2022/11/04 11:07:21;;;;;;;10.20;2.22;;;14.30;99.90;;;;;;5056605;28;20057;-95
2022/11/04 11:09:51;;;;;;;6.47;1.92;;;14.30;99.90;;;;;;5070205;28;20044;-95
2022/11/04 11:12:28;;;;;;;11.40;2.72;;;14.30;99.90;;;;;;5057047;28;20048;-96
2022/11/04 11:14:56;;;;;;;11.65;2.25;;;14.30;99.90;;;;;;5038188;28;20056;-95
2022/11/04 11:17:25;;;;;;;9.32;2.20;;;14.40;99.90;;;;;;5053570;28;20130;-93
2022/11/04 11:19:57;;;;;;;10.85;3.38;;;14.40;99.90;;;;;;5054555;28;20040;-94
2022/11/04 11:22:36;;;;;;;8.38;3.20;;;14.40;99.90;;;;;;5029829;28;20525;-94
2022/11/04 12:13:28;;;;;;;5.30;1.75;;;14.70;99.90;;;;;;5024200;28;20057;-93
2022/11/04 12:16:08;;;;;;;8.80;1.95;;;14.70;99.90;;;;;;5042201;28;20145;-91
2022/11/04 12:18:50;;;;;;;9.60;2.42;;;14.70;99.90;;;;;;5032513;28;20049;-92
2022/11/04 12:21:20;;;;;;;5.38;1.90;;;14.70;99.90;;;;;;5030834;28;20156;-93
2022/11/04 12:23:53;;;;;;;11.30;2.67;;;14.70;99.90;;;;;;5024663;28;20046;-95
2022/11/04 13:33:51;;;;;;;7.07;2.47;;;14.80;99.90;;;;;;5024271;28;20045;-93
2022/11/04 13:36:28;;;;;;;7.55;3.03;;;14.80;99.90;;;;;;4995736;28;20068;-91
2022/11/04 13:38:57;;;;;;;9.70;3.33;;;14.80;99.90;;;;;;4992787;28;20050;-93
2022/11/04 13:41:55;;;;;;;9.63;2.97;;;14.90;99.90;;;;;;4988986;28;20237;-92
2022/11/04 13:44:25;;;;;;;14.10;3.47;;;14.80;99.90;;;;;;4991991;28;20056;-90
2022/11/04 13:46:54;;;;;;;12.47;3.80;;;14.90;99.90;;;;;;4979870;28;20057;-91
2022/11/04 13:49:29;;;;;;;8.77;3.17;;;14.90;99.90;;;;;;4987959;28;20046;-91
2022/11/04 13:52:09;;;;;;;13.65;3.70;;;14.90;99.90;;;;;;4969964;28;20086;-93
2022/11/04 13:54:40;;;;;;;10.30;3.67;;;14.90;99.90;;;;;;4997104;28;20058;-90
2022/11/04 13:57:08;;;;;;;;;;;14.90;99.90;;;;;;4989925;28;20105;-91
2022/11/04 13:59:36;;;;;;;8.57;3.40;;;14.90;99.90;;;;;;4962320;28;19933;-89
2022/11/04 14:02:38;;;;;;;12.70;4.70;;;14.90;99.90;;;;;;5004793;28;20048;-95
2022/11/04 14:05:53;;;;;;;11.98;4.40;;;14.90;99.90;;;;;;4986408;28;20050;-94
2022/11/04 14:08:22;;;;;;;14.85;5.13;;;14.80;99.90;;;;;;4983896;28;20050;-89
2022/11/04 14:11:07;;;;;;;13.93;4.45;;;14.80;99.90;;;;;;4982732;28;20038;-89
2022/11/04 14:13:51;;;;;;;18.13;5.70;;;14.80;99.90;;;;;;4987953;28;20042;-94
2022/11/04 14:16:39;;;;;;;14.15;5.28;;;14.80;99.90;;;;;;4979640;28;20135;-88
2022/11/04 14:19:55;;;;;;;17.55;5.95;;;14.80;99.90;;;;;;4981901;28;20058;-90
2022/11/04 14:22:25;;;;;;;15.15;5.43;;;14.80;99.90;;;;;;4991225;28;20060;-90
2022/11/04 14:24:57;;;;;;;13.60;5.40;;;14.90;99.90;;;;;;4984367;28;20047;-91
2022/11/04 14:27:36;;;;;;;14.63;5.68;;;14.80;99.90;;;;;;4997409;28;20113;-92
2022/11/04 14:30:04;;;;;;;13.50;5.55;;;14.80;99.90;;;;;;4990869;28;20137;-90
2022/11/04 14:32:40;;;;;;;14.30;6.10;;;14.80;99.90;;;;;;4991746;28;20038;-92
2022/11/04 14:35:15;;;;;;;15.48;5.72;;;14.80;99.90;;;;;;4979583;28;20046;-91
2022/11/04 14:37:42;;;;;;;13.73;6.30;;;14.80;99.90;;;;;;4992662;28;20152;-91
2022/11/04 14:40:25;;;;;;;15.38;5.72;;;14.80;99.90;;;;;;4974411;28;20137;-92
2022/11/04 14:42:54;;;;;;;16.55;6.65;;;14.80;99.90;;;;;;4991430;28;20045;-93
2022/11/04 14:48:09;;;;;;;18.52;6.93;;;14.80;99.90;;;;;;4984031;28;20042;-91
2022/11/04 14:50:42;;;;;;;19.33;7.47;;;14.80;99.90;;;;;;4993505;28;20122;-92
2022/11/04 14:53:13;;;;;;;15.20;8.57;;;14.80;99.90;;;;;;4995495;28;20097;-90
2022/11/04 14:55:41;;;;;;;21.20;8.20;;;14.70;99.90;;;;;;4998502;28;20058;-92
2022/11/04 14:58:22;;;;;;;15.88;7.13;;;14.70;99.90;;;;;;4989702;28;20061;-88
2022/11/04 15:00:54;;;;;;;17.67;7.18;;;14.70;99.90;;;;;;4991108;28;20487;-89
2022/11/04 15:03:28;;;;;;;15.40;6.28;;;14.70;99.90;;;;;;4990792;28;20328;-90
2022/11/04 15:06:01;;;;;;;12.60;4.30;;;14.70;99.90;;;;;;4990719;28;20045;-89
2022/11/04 15:08:33;;;;;;;11.70;4.30;;;14.70;99.90;;;;;;4987100;28;20161;-89
2022/11/04 15:11:12;;;;;;;10.82;3.67;;;14.70;99.90;;;;;;5012160;28;20057;-89
2022/11/04 15:13:44;;;;;;;12.43;4.30;;;14.70;99.90;;;;;;4990190;28;20089;-89
2022/11/04 15:16:15;;;;;;;12.38;3.47;;;14.70;99.90;;;;;;5005149;28;20124;-88
2022/11/04 15:18:43;;;;;;;11.75;3.45;;;14.70;99.90;;;;;;5004462;28;20145;-89
2022/11/04 15:21:10;;;;;;;11.57;3.13;;;14.70;99.90;;;;;;4989340;28;20050;-89
2022/11/04 15:23:42;;;;;;;14.15;3.55;;;14.70;99.90;;;;;;4987614;28;20046;-88
2022/11/04 15:26:23;;;;;;;13.07;3.83;;;14.60;99.90;;;;;;4988738;28;20093;-85
2022/11/04 15:28:54;;;;;;;12.10;3.50;;;14.60;99.90;;;;;;4991774;28;20053;-86
2022/11/04 15:31:24;;;;;;;11.88;3.33;;;14.60;99.90;;;;;;4987995;28;20061;-85
2022/11/04 15:33:53;;;;;;;11.07;3.90;;;14.50;99.90;;;;;;4990838;28;20515;-85
2022/11/04 15:36:23;;;;;;;14.65;3.85;;;14.50;99.90;;;;;;4992170;28;20506;-88
2022/11/04 15:38:54;;;;;;;20.10;3.75;;;14.50;99.90;;;;;;4986714;28;20040;-84
2022/11/04 15:44:17;;;;;;;15.63;3.65;;;14.50;99.90;;;;;;4986545;28;20074;-87
2022/11/04 15:46:51;;;;;;;13.38;3.80;;;14.50;99.90;;;;;;4999320;28;20050;-88